sensor_id;sensor_type;location;lat;lon;timestamp;temperature;humidity
6672;DHT22;3372;48.690;12.362;2023-06-22T00:01:53;21.00;45.30
6672;DHT22;3372;48.690;12.362;2023-06-22T00:04:18;21.00;45.00
6672;DHT22;3372;48.690;12.362;2023-06-22T00:06:44;21.00;44.70
6672;DHT22;3372;48.690;12.362;2023-06-22T00:09:10;21.00;44.90
6672;DHT22;3372;48.690;12.362;2023-06-22T00:11:36;20.90;46.30
6672;DHT22;3372;48.690;12.362;2023-06-22T00:14:02;20.90;45.90
6672;DHT22;3372;48.690;12.362;2023-06-22T00:16:28;20.80;46.00
6672;DHT22;3372;48.690;12.362;2023-06-22T00:18:54;20.80;45.30
6672;DHT22;3372;48.690;12.362;2023-06-22T00:21:19;20.80;45.80
6672;DHT22;3372;48.690;12.362;2023-06-22T00:23:47;20.80;45.70
6672;DHT22;3372;48.690;12.362;2023-06-22T00:26:13;20.80;45.30
6672;DHT22;3372;48.690;12.362;2023-06-22T00:28:39;20.80;45.80
6672;DHT22;3372;48.690;12.362;2023-06-22T00:31:05;20.80;45.40
6672;DHT22;3372;48.690;12.362;2023-06-22T00:33:30;20.70;45.20
6672;DHT22;3372;48.690;12.362;2023-06-22T00:35:57;20.70;45.40
6672;DHT22;3372;48.690;12.362;2023-06-22T00:38:22;20.70;46.30
6672;DHT22;3372;48.690;12.362;2023-06-22T00:40:48;20.70;46.90
6672;DHT22;3372;48.690;12.362;2023-06-22T00:43:13;20.70;46.00
6672;DHT22;3372;48.690;12.362;2023-06-22T00:45:39;20.60;47.30
6672;DHT22;3372;48.690;12.362;2023-06-22T00:48:05;20.60;46.10
6672;DHT22;3372;48.690;12.362;2023-06-22T00:50:33;20.60;46.60
6672;DHT22;3372;48.690;12.362;2023-06-22T00:53:05;20.60;46.60
6672;DHT22;3372;48.690;12.362;2023-06-22T00:55:35;20.60;46.80
6672;DHT22;3372;48.690;12.362;2023-06-22T00:58:03;20.60;46.00
6672;DHT22;3372;48.690;12.362;2023-06-22T01:00:31;20.60;48.20
6672;DHT22;3372;48.690;12.362;2023-06-22T01:02:58;20.50;47.80
6672;DHT22;3372;48.690;12.362;2023-06-22T01:05:24;20.50;48.60
6672;DHT22;3372;48.690;12.362;2023-06-22T01:10:55;20.40;52.90
6672;DHT22;3372;48.690;12.362;2023-06-22T01:16:07;20.40;52.70
6672;DHT22;3372;48.690;12.362;2023-06-22T01:18:36;20.40;51.80
6672;DHT22;3372;48.690;12.362;2023-06-22T01:21:06;20.50;51.70
6672;DHT22;3372;48.690;12.362;2023-06-22T01:26:43;20.50;53.30
6672;DHT22;3372;48.690;12.362;2023-06-22T01:29:12;20.30;53.20
6672;DHT22;3372;48.690;12.362;2023-06-22T01:31:40;20.30;53.30
6672;DHT22;3372;48.690;12.362;2023-06-22T01:34:08;20.10;54.20
6672;DHT22;3372;48.690;12.362;2023-06-22T01:36:35;20.10;56.10
6672;DHT22;3372;48.690;12.362;2023-06-22T01:39:02;20.00;55.70
6672;DHT22;3372;48.690;12.362;2023-06-22T01:41:36;20.20;53.90
6672;DHT22;3372;48.690;12.362;2023-06-22T01:44:05;20.10;54.50
6672;DHT22;3372;48.690;12.362;2023-06-22T01:46:32;20.10;53.10
6672;DHT22;3372;48.690;12.362;2023-06-22T01:48:58;20.20;52.80
6672;DHT22;3372;48.690;12.362;2023-06-22T01:51:24;20.20;52.30
6672;DHT22;3372;48.690;12.362;2023-06-22T01:53:50;20.20;52.00
6672;DHT22;3372;48.690;12.362;2023-06-22T01:56:17;20.20;51.10
6672;DHT22;3372;48.690;12.362;2023-06-22T01:58:50;20.30;51.20
6672;DHT22;3372;48.690;12.362;2023-06-22T02:01:31;20.30;51.80
6672;DHT22;3372;48.690;12.362;2023-06-22T02:04:09;20.20;52.00
6672;DHT22;3372;48.690;12.362;2023-06-22T02:06:38;20.20;50.50
6672;DHT22;3372;48.690;12.362;2023-06-22T02:09:14;20.10;50.50
6672;DHT22;3372;48.690;12.362;2023-06-22T02:11:42;20.10;51.60
6672;DHT22;3372;48.690;12.362;2023-06-22T02:14:10;20.20;50.00
6672;DHT22;3372;48.690;12.362;2023-06-22T02:16:36;20.10;49.80
6672;DHT22;3372;48.690;12.362;2023-06-22T02:19:03;20.10;49.40
6672;DHT22;3372;48.690;12.362;2023-06-22T02:21:30;20.10;50.00
6672;DHT22;3372;48.690;12.362;2023-06-22T02:23:56;20.10;49.60
6672;DHT22;3372;48.690;12.362;2023-06-22T02:26:22;20.10;49.80
6672;DHT22;3372;48.690;12.362;2023-06-22T02:28:49;20.00;49.90
6672;DHT22;3372;48.690;12.362;2023-06-22T02:31:14;20.00;49.40
6672;DHT22;3372;48.690;12.362;2023-06-22T02:33:40;20.00;50.30
6672;DHT22;3372;48.690;12.362;2023-06-22T02:36:06;20.00;50.20
6672;DHT22;3372;48.690;12.362;2023-06-22T02:38:37;20.00;51.10
6672;DHT22;3372;48.690;12.362;2023-06-22T02:41:03;20.00;50.30
6672;DHT22;3372;48.690;12.362;2023-06-22T02:43:28;20.00;50.40
6672;DHT22;3372;48.690;12.362;2023-06-22T02:45:54;20.00;49.80
6672;DHT22;3372;48.690;12.362;2023-06-22T02:48:20;19.90;49.90
6672;DHT22;3372;48.690;12.362;2023-06-22T02:50:46;19.90;49.80
6672;DHT22;3372;48.690;12.362;2023-06-22T02:53:11;19.90;50.00
6672;DHT22;3372;48.690;12.362;2023-06-22T02:55:37;19.90;49.70
6672;DHT22;3372;48.690;12.362;2023-06-22T02:58:05;19.90;50.00
6672;DHT22;3372;48.690;12.362;2023-06-22T03:00:31;19.90;49.10
6672;DHT22;3372;48.690;12.362;2023-06-22T03:02:57;19.80;49.50
6672;DHT22;3372;48.690;12.362;2023-06-22T03:05:23;19.80;49.20
6672;DHT22;3372;48.690;12.362;2023-06-22T03:07:49;19.70;49.50
6672;DHT22;3372;48.690;12.362;2023-06-22T03:10:15;19.70;49.40
6672;DHT22;3372;48.690;12.362;2023-06-22T03:12:42;19.70;49.70
6672;DHT22;3372;48.690;12.362;2023-06-22T03:15:10;19.70;49.30
6672;DHT22;3372;48.690;12.362;2023-06-22T03:17:37;19.70;49.30
6672;DHT22;3372;48.690;12.362;2023-06-22T03:20:04;19.70;49.50
6672;DHT22;3372;48.690;12.362;2023-06-22T03:22:40;19.60;49.30
6672;DHT22;3372;48.690;12.362;2023-06-22T03:25:07;19.60;48.80
6672;DHT22;3372;48.690;12.362;2023-06-22T03:27:41;19.60;49.20
6672;DHT22;3372;48.690;12.362;2023-06-22T03:30:08;19.50;49.50
6672;DHT22;3372;48.690;12.362;2023-06-22T03:32:35;19.50;49.80
6672;DHT22;3372;48.690;12.362;2023-06-22T03:35:01;19.60;50.00
6672;DHT22;3372;48.690;12.362;2023-06-22T03:37:27;19.60;50.30
6672;DHT22;3372;48.690;12.362;2023-06-22T03:39:53;19.60;51.30
6672;DHT22;3372;48.690;12.362;2023-06-22T03:42:19;19.60;50.20
6672;DHT22;3372;48.690;12.362;2023-06-22T03:44:45;19.60;50.50
6672;DHT22;3372;48.690;12.362;2023-06-22T03:47:10;19.60;50.80
6672;DHT22;3372;48.690;12.362;2023-06-22T03:49:36;19.60;50.30
6672;DHT22;3372;48.690;12.362;2023-06-22T03:52:02;19.60;49.90
6672;DHT22;3372;48.690;12.362;2023-06-22T03:54:31;19.60;50.20
6672;DHT22;3372;48.690;12.362;2023-06-22T03:56:58;19.70;50.90
6672;DHT22;3372;48.690;12.362;2023-06-22T03:59:24;19.60;51.00
6672;DHT22;3372;48.690;12.362;2023-06-22T04:01:49;19.70;51.20
6672;DHT22;3372;48.690;12.362;2023-06-22T04:04:18;19.70;51.90
6672;DHT22;3372;48.690;12.362;2023-06-22T04:06:43;19.80;53.20
6672;DHT22;3372;48.690;12.362;2023-06-22T04:09:09;19.80;53.90
6672;DHT22;3372;48.690;12.362;2023-06-22T04:11:34;19.70;56.70
6672;DHT22;3372;48.690;12.362;2023-06-22T04:14:00;19.70;56.40
6672;DHT22;3372;48.690;12.362;2023-06-22T04:16:26;19.70;57.60
6672;DHT22;3372;48.690;12.362;2023-06-22T04:18:51;19.60;59.10
6672;DHT22;3372;48.690;12.362;2023-06-22T04:21:17;19.80;58.30
6672;DHT22;3372;48.690;12.362;2023-06-22T04:23:45;19.80;58.70
6672;DHT22;3372;48.690;12.362;2023-06-22T04:26:11;19.90;59.30
6672;DHT22;3372;48.690;12.362;2023-06-22T04:28:37;19.90;61.40
6672;DHT22;3372;48.690;12.362;2023-06-22T04:31:03;20.00;59.90
6672;DHT22;3372;48.690;12.362;2023-06-22T04:33:29;20.00;59.70
6672;DHT22;3372;48.690;12.362;2023-06-22T04:35:55;20.10;59.30
6672;DHT22;3372;48.690;12.362;2023-06-22T04:38:22;20.20;59.40
6672;DHT22;3372;48.690;12.362;2023-06-22T04:40:49;20.20;59.50
6672;DHT22;3372;48.690;12.362;2023-06-22T04:43:14;20.20;59.50
6672;DHT22;3372;48.690;12.362;2023-06-22T04:45:40;20.30;59.70
6672;DHT22;3372;48.690;12.362;2023-06-22T04:48:05;20.20;61.80
6672;DHT22;3372;48.690;12.362;2023-06-22T04:50:31;20.30;62.20
6672;DHT22;3372;48.690;12.362;2023-06-22T04:52:57;20.30;60.70
6672;DHT22;3372;48.690;12.362;2023-06-22T04:55:23;20.20;62.70
6672;DHT22;3372;48.690;12.362;2023-06-22T04:57:51;20.30;62.40
6672;DHT22;3372;48.690;12.362;2023-06-22T05:00:18;20.30;63.40
6672;DHT22;3372;48.690;12.362;2023-06-22T05:02:45;20.30;64.00
6672;DHT22;3372;48.690;12.362;2023-06-22T05:05:13;20.60;63.10
6672;DHT22;3372;48.690;12.362;2023-06-22T05:07:46;21.00;63.40
6672;DHT22;3372;48.690;12.362;2023-06-22T05:10:14;21.50;61.20
6672;DHT22;3372;48.690;12.362;2023-06-22T05:12:41;21.80;59.10
6672;DHT22;3372;48.690;12.362;2023-06-22T05:15:07;22.00;58.50
6672;DHT22;3372;48.690;12.362;2023-06-22T05:17:34;22.20;57.60
6672;DHT22;3372;48.690;12.362;2023-06-22T05:20:00;22.50;57.20
6672;DHT22;3372;48.690;12.362;2023-06-22T05:22:25;22.80;55.60
6672;DHT22;3372;48.690;12.362;2023-06-22T05:24:51;23.00;54.00
6672;DHT22;3372;48.690;12.362;2023-06-22T05:27:16;22.80;54.00
6672;DHT22;3372;48.690;12.362;2023-06-22T05:29:42;23.00;53.60
6672;DHT22;3372;48.690;12.362;2023-06-22T05:32:08;23.40;53.70
6672;DHT22;3372;48.690;12.362;2023-06-22T05:34:34;23.50;51.50
6672;DHT22;3372;48.690;12.362;2023-06-22T05:36:59;23.50;52.20
6672;DHT22;3372;48.690;12.362;2023-06-22T05:39:25;23.70;50.80
6672;DHT22;3372;48.690;12.362;2023-06-22T05:41:51;23.60;50.60
6672;DHT22;3372;48.690;12.362;2023-06-22T05:44:17;23.80;50.80
6672;DHT22;3372;48.690;12.362;2023-06-22T05:46:43;23.70;50.80
6672;DHT22;3372;48.690;12.362;2023-06-22T05:49:13;23.90;49.90
6672;DHT22;3372;48.690;12.362;2023-06-22T05:51:39;24.10;50.40
6672;DHT22;3372;48.690;12.362;2023-06-22T05:54:05;24.20;48.40
6672;DHT22;3372;48.690;12.362;2023-06-22T05:56:31;24.40;48.80
6672;DHT22;3372;48.690;12.362;2023-06-22T05:58:57;24.40;46.50
6672;DHT22;3372;48.690;12.362;2023-06-22T06:01:23;24.50;49.00
6672;DHT22;3372;48.690;12.362;2023-06-22T06:03:51;24.60;47.50
6672;DHT22;3372;48.690;12.362;2023-06-22T06:06:18;25.00;47.00
6672;DHT22;3372;48.690;12.362;2023-06-22T06:08:43;25.20;48.20
6672;DHT22;3372;48.690;12.362;2023-06-22T06:11:09;25.20;47.40
6672;DHT22;3372;48.690;12.362;2023-06-22T06:13:34;25.30;45.80
6672;DHT22;3372;48.690;12.362;2023-06-22T06:16:00;25.40;43.20
6672;DHT22;3372;48.690;12.362;2023-06-22T06:18:26;25.60;43.10
6672;DHT22;3372;48.690;12.362;2023-06-22T06:20:51;26.10;44.20
6672;DHT22;3372;48.690;12.362;2023-06-22T06:23:17;26.20;43.70
6672;DHT22;3372;48.690;12.362;2023-06-22T06:25:43;26.60;40.00
6672;DHT22;3372;48.690;12.362;2023-06-22T06:28:09;26.70;40.60
6672;DHT22;3372;48.690;12.362;2023-06-22T06:30:35;26.80;39.40
6672;DHT22;3372;48.690;12.362;2023-06-22T06:33:02;27.10;39.60
6672;DHT22;3372;48.690;12.362;2023-06-22T06:35:30;27.20;39.10
6672;DHT22;3372;48.690;12.362;2023-06-22T06:37:55;27.10;37.70
6672;DHT22;3372;48.690;12.362;2023-06-22T06:40:21;27.20;36.00
6672;DHT22;3372;48.690;12.362;2023-06-22T06:42:47;27.10;33.30
6672;DHT22;3372;48.690;12.362;2023-06-22T06:45:23;27.40;34.60
6672;DHT22;3372;48.690;12.362;2023-06-22T06:47:50;27.50;33.80
6672;DHT22;3372;48.690;12.362;2023-06-22T06:50:16;27.60;31.70
6672;DHT22;3372;48.690;12.362;2023-06-22T06:52:42;27.80;31.30
6672;DHT22;3372;48.690;12.362;2023-06-22T06:55:08;27.40;28.70
6672;DHT22;3372;48.690;12.362;2023-06-22T06:57:40;27.70;27.70
6672;DHT22;3372;48.690;12.362;2023-06-22T07:00:07;27.80;26.00
6672;DHT22;3372;48.690;12.362;2023-06-22T07:02:38;27.90;27.10
6672;DHT22;3372;48.690;12.362;2023-06-22T07:05:03;28.20;26.10
6672;DHT22;3372;48.690;12.362;2023-06-22T07:07:30;28.30;25.90
6672;DHT22;3372;48.690;12.362;2023-06-22T07:09:55;28.30;23.70
6672;DHT22;3372;48.690;12.362;2023-06-22T07:12:21;28.50;26.00
6672;DHT22;3372;48.690;12.362;2023-06-22T07:14:46;28.30;24.00
6672;DHT22;3372;48.690;12.362;2023-06-22T07:17:12;28.40;23.40
6672;DHT22;3372;48.690;12.362;2023-06-22T07:19:37;28.70;24.00
6672;DHT22;3372;48.690;12.362;2023-06-22T07:22:04;28.90;24.30
6672;DHT22;3372;48.690;12.362;2023-06-22T07:24:30;29.00;23.90
6672;DHT22;3372;48.690;12.362;2023-06-22T07:26:55;29.00;21.00
6672;DHT22;3372;48.690;12.362;2023-06-22T07:29:23;28.90;22.10
6672;DHT22;3372;48.690;12.362;2023-06-22T07:31:50;28.90;18.10
6672;DHT22;3372;48.690;12.362;2023-06-22T07:34:17;28.80;19.50
6672;DHT22;3372;48.690;12.362;2023-06-22T07:36:43;29.00;21.40
6672;DHT22;3372;48.690;12.362;2023-06-22T07:39:08;29.10;22.70
6672;DHT22;3372;48.690;12.362;2023-06-22T07:41:34;29.20;20.30
6672;DHT22;3372;48.690;12.362;2023-06-22T07:44:00;29.20;19.10
6672;DHT22;3372;48.690;12.362;2023-06-22T07:46:25;29.40;20.00
6672;DHT22;3372;48.690;12.362;2023-06-22T07:48:51;29.20;17.90
6672;DHT22;3372;48.690;12.362;2023-06-22T07:51:17;29.30;19.70
6672;DHT22;3372;48.690;12.362;2023-06-22T07:53:43;29.30;18.40
6672;DHT22;3372;48.690;12.362;2023-06-22T07:56:13;29.10;18.00
6672;DHT22;3372;48.690;12.362;2023-06-22T07:58:39;28.80;19.50
6672;DHT22;3372;48.690;12.362;2023-06-22T08:01:04;29.30;19.70
6672;DHT22;3372;48.690;12.362;2023-06-22T08:03:31;29.30;18.60
6672;DHT22;3372;48.690;12.362;2023-06-22T08:05:57;29.20;18.40
6672;DHT22;3372;48.690;12.362;2023-06-22T08:08:23;29.10;17.60
6672;DHT22;3372;48.690;12.362;2023-06-22T08:10:49;29.30;18.40
6672;DHT22;3372;48.690;12.362;2023-06-22T08:13:15;29.50;18.00
6672;DHT22;3372;48.690;12.362;2023-06-22T08:15:40;29.50;18.80
6672;DHT22;3372;48.690;12.362;2023-06-22T08:18:06;29.80;18.30
6672;DHT22;3372;48.690;12.362;2023-06-22T08:20:31;30.00;19.60
6672;DHT22;3372;48.690;12.362;2023-06-22T08:22:57;30.20;17.90
6672;DHT22;3372;48.690;12.362;2023-06-22T08:25:26;30.20;18.60
6672;DHT22;3372;48.690;12.362;2023-06-22T08:27:51;30.10;16.50
6672;DHT22;3372;48.690;12.362;2023-06-22T08:30:18;29.90;15.60
6672;DHT22;3372;48.690;12.362;2023-06-22T08:32:46;29.80;16.00
6672;DHT22;3372;48.690;12.362;2023-06-22T08:35:11;29.80;16.80
6672;DHT22;3372;48.690;12.362;2023-06-22T08:37:37;29.80;16.30
6672;DHT22;3372;48.690;12.362;2023-06-22T08:40:06;30.00;16.20
6672;DHT22;3372;48.690;12.362;2023-06-22T08:42:40;30.00;16.90
6672;DHT22;3372;48.690;12.362;2023-06-22T08:45:07;30.00;16.20
6672;DHT22;3372;48.690;12.362;2023-06-22T08:47:33;29.90;15.00
6672;DHT22;3372;48.690;12.362;2023-06-22T08:49:58;30.00;16.50
6672;DHT22;3372;48.690;12.362;2023-06-22T08:52:24;30.10;17.20
6672;DHT22;3372;48.690;12.362;2023-06-22T08:54:50;30.40;17.20
6672;DHT22;3372;48.690;12.362;2023-06-22T08:57:16;30.60;16.60
6672;DHT22;3372;48.690;12.362;2023-06-22T08:59:42;30.90;16.00
6672;DHT22;3372;48.690;12.362;2023-06-22T09:02:07;30.80;14.20
6672;DHT22;3372;48.690;12.362;2023-06-22T09:04:33;31.00;15.20
6672;DHT22;3372;48.690;12.362;2023-06-22T09:07:02;31.00;16.50
6672;DHT22;3372;48.690;12.362;2023-06-22T09:09:28;31.00;14.60
6672;DHT22;3372;48.690;12.362;2023-06-22T09:11:54;31.20;15.00
6672;DHT22;3372;48.690;12.362;2023-06-22T09:14:19;31.20;14.00
6672;DHT22;3372;48.690;12.362;2023-06-22T09:16:45;31.10;12.80
6672;DHT22;3372;48.690;12.362;2023-06-22T09:19:10;31.10;14.20
6672;DHT22;3372;48.690;12.362;2023-06-22T09:21:36;31.30;15.20
6672;DHT22;3372;48.690;12.362;2023-06-22T09:24:02;31.40;15.20
6672;DHT22;3372;48.690;12.362;2023-06-22T09:26:28;31.50;12.70
6672;DHT22;3372;48.690;12.362;2023-06-22T09:28:53;31.60;12.50
6672;DHT22;3372;48.690;12.362;2023-06-22T09:31:19;31.40;12.60
6672;DHT22;3372;48.690;12.362;2023-06-22T09:33:51;31.70;13.60
6672;DHT22;3372;48.690;12.362;2023-06-22T09:36:17;32.00;13.20
6672;DHT22;3372;48.690;12.362;2023-06-22T09:38:42;32.10;12.50
6672;DHT22;3372;48.690;12.362;2023-06-22T09:41:08;32.10;10.50
6672;DHT22;3372;48.690;12.362;2023-06-22T09:43:33;32.20;9.10
6672;DHT22;3372;48.690;12.362;2023-06-22T09:46:02;32.10;9.70
6672;DHT22;3372;48.690;12.362;2023-06-22T09:48:28;32.00;12.00
6672;DHT22;3372;48.690;12.362;2023-06-22T09:50:55;31.90;11.20
6672;DHT22;3372;48.690;12.362;2023-06-22T09:53:24;31.50;10.90
6672;DHT22;3372;48.690;12.362;2023-06-22T09:55:49;31.40;10.10
6672;DHT22;3372;48.690;12.362;2023-06-22T09:58:15;31.40;11.50
6672;DHT22;3372;48.690;12.362;2023-06-22T10:00:41;31.30;11.60
6672;DHT22;3372;48.690;12.362;2023-06-22T10:03:09;31.60;12.30
6672;DHT22;3372;48.690;12.362;2023-06-22T10:05:34;31.80;11.90
6672;DHT22;3372;48.690;12.362;2023-06-22T10:08:00;31.90;13.40
6672;DHT22;3372;48.690;12.362;2023-06-22T10:10:26;32.00;13.00
6672;DHT22;3372;48.690;12.362;2023-06-22T10:12:56;31.80;9.80
6672;DHT22;3372;48.690;12.362;2023-06-22T10:15:22;31.50;11.00
6672;DHT22;3372;48.690;12.362;2023-06-22T10:17:48;31.50;10.70
6672;DHT22;3372;48.690;12.362;2023-06-22T10:20:14;31.50;11.00
6672;DHT22;3372;48.690;12.362;2023-06-22T10:22:41;31.40;11.20
6672;DHT22;3372;48.690;12.362;2023-06-22T10:25:07;31.30;9.90
6672;DHT22;3372;48.690;12.362;2023-06-22T10:27:34;31.20;10.30
6672;DHT22;3372;48.690;12.362;2023-06-22T10:30:00;31.40;12.70
6672;DHT22;3372;48.690;12.362;2023-06-22T10:32:25;31.40;10.90
6672;DHT22;3372;48.690;12.362;2023-06-22T10:34:51;31.60;11.50
6672;DHT22;3372;48.690;12.362;2023-06-22T10:37:16;31.80;11.30
6672;DHT22;3372;48.690;12.362;2023-06-22T10:39:42;31.50;10.00
6672;DHT22;3372;48.690;12.362;2023-06-22T10:42:07;31.70;11.20
6672;DHT22;3372;48.690;12.362;2023-06-22T10:44:33;31.80;11.20
6672;DHT22;3372;48.690;12.362;2023-06-22T10:46:58;32.00;12.30
6672;DHT22;3372;48.690;12.362;2023-06-22T10:49:24;32.00;11.00
6672;DHT22;3372;48.690;12.362;2023-06-22T10:51:50;32.00;10.50
6672;DHT22;3372;48.690;12.362;2023-06-22T10:54:15;32.00;10.20
6672;DHT22;3372;48.690;12.362;2023-06-22T10:56:43;31.90;9.90
6672;DHT22;3372;48.690;12.362;2023-06-22T10:59:09;31.90;10.20
6672;DHT22;3372;48.690;12.362;2023-06-22T11:01:34;31.80;9.30
6672;DHT22;3372;48.690;12.362;2023-06-22T11:04:00;31.90;9.50
6672;DHT22;3372;48.690;12.362;2023-06-22T11:06:25;31.80;11.10
6672;DHT22;3372;48.690;12.362;2023-06-22T11:08:51;32.00;10.10
6672;DHT22;3372;48.690;12.362;2023-06-22T11:11:17;32.00;9.10
6672;DHT22;3372;48.690;12.362;2023-06-22T11:13:43;32.00;8.60
6672;DHT22;3372;48.690;12.362;2023-06-22T11:16:10;31.90;10.20
6672;DHT22;3372;48.690;12.362;2023-06-22T11:18:35;32.00;9.10
6672;DHT22;3372;48.690;12.362;2023-06-22T11:21:01;32.10;9.20
6672;DHT22;3372;48.690;12.362;2023-06-22T11:23:27;32.10;8.30
6672;DHT22;3372;48.690;12.362;2023-06-22T11:25:54;32.10;8.00
6672;DHT22;3372;48.690;12.362;2023-06-22T11:28:19;32.00;9.50
6672;DHT22;3372;48.690;12.362;2023-06-22T11:30:45;32.10;8.90
6672;DHT22;3372;48.690;12.362;2023-06-22T11:33:10;32.10;8.60
6672;DHT22;3372;48.690;12.362;2023-06-22T11:35:36;32.10;9.00
6672;DHT22;3372;48.690;12.362;2023-06-22T11:38:01;32.10;8.90
6672;DHT22;3372;48.690;12.362;2023-06-22T11:40:29;32.10;8.20
6672;DHT22;3372;48.690;12.362;2023-06-22T11:42:54;32.20;8.80
6672;DHT22;3372;48.690;12.362;2023-06-22T11:45:20;32.30;8.60
6672;DHT22;3372;48.690;12.362;2023-06-22T11:47:46;32.20;10.00
6672;DHT22;3372;48.690;12.362;2023-06-22T11:50:12;32.30;9.00
6672;DHT22;3372;48.690;12.362;2023-06-22T11:52:38;32.30;8.80
6672;DHT22;3372;48.690;12.362;2023-06-22T11:55:04;32.30;6.70
6672;DHT22;3372;48.690;12.362;2023-06-22T11:57:36;32.10;8.00
6672;DHT22;3372;48.690;12.362;2023-06-22T12:00:03;32.10;8.80
6672;DHT22;3372;48.690;12.362;2023-06-22T12:02:41;32.30;9.00
6672;DHT22;3372;48.690;12.362;2023-06-22T12:05:07;32.30;9.00
6672;DHT22;3372;48.690;12.362;2023-06-22T12:07:33;32.30;7.70
6672;DHT22;3372;48.690;12.362;2023-06-22T12:09:59;32.20;8.00
6672;DHT22;3372;48.690;12.362;2023-06-22T12:12:24;32.10;6.90
6672;DHT22;3372;48.690;12.362;2023-06-22T12:14:50;32.00;7.90
6672;DHT22;3372;48.690;12.362;2023-06-22T12:17:15;32.10;8.00
6672;DHT22;3372;48.690;12.362;2023-06-22T12:19:41;32.20;6.90
6672;DHT22;3372;48.690;12.362;2023-06-22T12:22:07;32.30;7.90
6672;DHT22;3372;48.690;12.362;2023-06-22T12:24:32;32.40;7.00
6672;DHT22;3372;48.690;12.362;2023-06-22T12:26:58;32.50;8.30
6672;DHT22;3372;48.690;12.362;2023-06-22T12:29:24;32.60;8.30
6672;DHT22;3372;48.690;12.362;2023-06-22T12:31:49;32.70;7.80
6672;DHT22;3372;48.690;12.362;2023-06-22T12:34:15;32.70;7.00
6672;DHT22;3372;48.690;12.362;2023-06-22T12:36:40;32.60;5.80
6672;DHT22;3372;48.690;12.362;2023-06-22T12:39:06;32.50;6.10
6672;DHT22;3372;48.690;12.362;2023-06-22T12:41:32;32.40;6.50
6672;DHT22;3372;48.690;12.362;2023-06-22T12:43:57;32.60;6.90
6672;DHT22;3372;48.690;12.362;2023-06-22T12:46:24;32.70;7.00
6672;DHT22;3372;48.690;12.362;2023-06-22T12:48:50;32.80;5.60
6672;DHT22;3372;48.690;12.362;2023-06-22T12:51:22;32.80;4.90
6672;DHT22;3372;48.690;12.362;2023-06-22T12:53:48;32.80;5.40
6672;DHT22;3372;48.690;12.362;2023-06-22T12:56:13;32.70;6.00
6672;DHT22;3372;48.690;12.362;2023-06-22T12:58:39;32.70;5.20
6672;DHT22;3372;48.690;12.362;2023-06-22T13:01:04;32.80;5.70
6672;DHT22;3372;48.690;12.362;2023-06-22T13:03:30;32.80;6.90
6672;DHT22;3372;48.690;12.362;2023-06-22T13:05:56;32.90;6.50
6672;DHT22;3372;48.690;12.362;2023-06-22T13:08:21;32.90;3.60
6672;DHT22;3372;48.690;12.362;2023-06-22T13:10:47;33.00;5.50
6672;DHT22;3372;48.690;12.362;2023-06-22T13:13:13;32.90;4.30
6672;DHT22;3372;48.690;12.362;2023-06-22T13:15:38;33.00;5.20
6672;DHT22;3372;48.690;12.362;2023-06-22T13:18:04;33.00;6.60
6672;DHT22;3372;48.690;12.362;2023-06-22T13:20:30;33.00;6.30
6672;DHT22;3372;48.690;12.362;2023-06-22T13:22:55;32.90;5.60
6672;DHT22;3372;48.690;12.362;2023-06-22T13:25:22;33.10;5.20
6672;DHT22;3372;48.690;12.362;2023-06-22T13:27:51;33.20;4.80
6672;DHT22;3372;48.690;12.362;2023-06-22T13:30:17;33.30;4.20
6672;DHT22;3372;48.690;12.362;2023-06-22T13:32:44;33.30;4.70
6672;DHT22;3372;48.690;12.362;2023-06-22T13:35:10;33.30;4.60
6672;DHT22;3372;48.690;12.362;2023-06-22T13:37:36;33.40;3.50
6672;DHT22;3372;48.690;12.362;2023-06-22T13:40:04;33.30;3.80
6672;DHT22;3372;48.690;12.362;2023-06-22T13:42:34;33.20;2.80
6672;DHT22;3372;48.690;12.362;2023-06-22T13:45:00;33.10;5.10
6672;DHT22;3372;48.690;12.362;2023-06-22T13:47:26;32.90;4.70
6672;DHT22;3372;48.690;12.362;2023-06-22T13:49:51;32.90;5.20
6672;DHT22;3372;48.690;12.362;2023-06-22T13:52:17;33.00;5.60
6672;DHT22;3372;48.690;12.362;2023-06-22T13:54:43;33.10;3.30
6672;DHT22;3372;48.690;12.362;2023-06-22T13:57:09;33.20;4.80
6672;DHT22;3372;48.690;12.362;2023-06-22T13:59:34;33.30;4.70
6672;DHT22;3372;48.690;12.362;2023-06-22T14:02:00;33.30;4.50
6672;DHT22;3372;48.690;12.362;2023-06-22T14:04:26;33.20;4.30
6672;DHT22;3372;48.690;12.362;2023-06-22T14:06:51;33.30;4.20
6672;DHT22;3372;48.690;12.362;2023-06-22T14:09:17;33.30;3.70
6672;DHT22;3372;48.690;12.362;2023-06-22T14:11:43;33.30;4.20
6672;DHT22;3372;48.690;12.362;2023-06-22T14:14:08;33.20;5.60
6672;DHT22;3372;48.690;12.362;2023-06-22T14:16:34;33.10;4.90
6672;DHT22;3372;48.690;12.362;2023-06-22T14:18:59;33.10;4.90
6672;DHT22;3372;48.690;12.362;2023-06-22T14:21:26;33.20;3.70
6672;DHT22;3372;48.690;12.362;2023-06-22T14:23:51;33.20;5.80
6672;DHT22;3372;48.690;12.362;2023-06-22T14:26:17;33.30;5.80
6672;DHT22;3372;48.690;12.362;2023-06-22T14:28:45;33.30;5.10
6672;DHT22;3372;48.690;12.362;2023-06-22T14:31:17;33.40;5.70
6672;DHT22;3372;48.690;12.362;2023-06-22T14:33:47;33.40;4.50
6672;DHT22;3372;48.690;12.362;2023-06-22T14:36:14;33.40;4.90
6672;DHT22;3372;48.690;12.362;2023-06-22T14:38:39;33.40;4.90
6672;DHT22;3372;48.690;12.362;2023-06-22T14:41:05;33.30;3.90
6672;DHT22;3372;48.690;12.362;2023-06-22T14:43:31;33.30;4.90
6672;DHT22;3372;48.690;12.362;2023-06-22T14:45:57;33.40;4.90
6672;DHT22;3372;48.690;12.362;2023-06-22T14:48:23;33.50;5.60
6672;DHT22;3372;48.690;12.362;2023-06-22T14:50:48;33.70;6.60
6672;DHT22;3372;48.690;12.362;2023-06-22T14:53:14;33.80;5.80
6672;DHT22;3372;48.690;12.362;2023-06-22T14:55:40;34.00;5.30
6672;DHT22;3372;48.690;12.362;2023-06-22T14:58:06;34.10;5.00
6672;DHT22;3372;48.690;12.362;2023-06-22T15:00:32;34.20;6.10
6672;DHT22;3372;48.690;12.362;2023-06-22T15:02:58;34.00;3.70
6672;DHT22;3372;48.690;12.362;2023-06-22T15:05:25;34.00;3.50
6672;DHT22;3372;48.690;12.362;2023-06-22T15:07:50;34.00;3.40
6672;DHT22;3372;48.690;12.362;2023-06-22T15:10:16;34.00;3.90
6672;DHT22;3372;48.690;12.362;2023-06-22T15:12:42;34.00;4.00
6672;DHT22;3372;48.690;12.362;2023-06-22T15:15:13;34.00;5.10
6672;DHT22;3372;48.690;12.362;2023-06-22T15:17:39;34.00;3.20
6672;DHT22;3372;48.690;12.362;2023-06-22T15:20:05;34.00;3.90
6672;DHT22;3372;48.690;12.362;2023-06-22T15:22:33;34.10;5.30
6672;DHT22;3372;48.690;12.362;2023-06-22T15:24:59;34.10;4.00
6672;DHT22;3372;48.690;12.362;2023-06-22T15:27:24;34.20;4.30
6672;DHT22;3372;48.690;12.362;2023-06-22T15:29:50;34.20;4.60
6672;DHT22;3372;48.690;12.362;2023-06-22T15:32:16;34.20;3.90
6672;DHT22;3372;48.690;12.362;2023-06-22T15:34:42;34.20;4.90
6672;DHT22;3372;48.690;12.362;2023-06-22T15:37:08;34.20;3.90
6672;DHT22;3372;48.690;12.362;2023-06-22T15:39:34;34.10;3.30
6672;DHT22;3372;48.690;12.362;2023-06-22T15:42:00;34.20;3.50
6672;DHT22;3372;48.690;12.362;2023-06-22T15:44:25;34.20;3.60
6672;DHT22;3372;48.690;12.362;2023-06-22T15:46:51;34.20;3.40
6672;DHT22;3372;48.690;12.362;2023-06-22T15:49:17;34.20;3.60
6672;DHT22;3372;48.690;12.362;2023-06-22T15:51:43;34.20;3.80
6672;DHT22;3372;48.690;12.362;2023-06-22T15:54:09;34.20;3.80